Time;durP1;ratioP1;P1;durP2;ratioP2;P2;SDS_P1;SDS_P2;PMS_P1;PMS_P2;Temp;Humidity;BMP_temperature;BMP_pressure;BME280_temperature;BME280_humidity;BME280_pressure;Samples;Min_cycle;Max_cycle;Signal;HPM_P1;HPM_P2
2023/11/17 00:00:18;;;;;;;44.90;21.80;;;;;;;0.71;72.35;101416.21;107573;1251;110839;-61
2023/11/17 00:03:06;;;;;;;40.10;20.80;;;;;;;0.73;72.41;101413.69;107616;1252;109487;-62
2023/11/17 00:05:35;;;;;;;42.50;21.70;;;;;;;0.73;72.26;101412.80;107594;1253;97723;-59
2023/11/17 00:08:04;;;;;;;42.70;21.10;;;;;;;0.72;72.28;101407.52;107651;1251;98370;-60
2023/11/17 00:10:34;;;;;;;38.10;19.70;;;;;;;0.72;72.32;101405.75;107621;1251;112099;-62
2023/11/17 00:13:02;;;;;;;39.40;20.60;;;;;;;0.70;72.05;101405.84;107638;1253;108753;-60
2023/11/17 00:15:31;;;;;;;45.00;21.10;;;;;;;0.67;72.11;101404.38;107582;1253;108818;-60
2023/11/17 00:17:59;;;;;;;40.30;20.10;;;;;;;0.65;72.09;101397.91;107621;1251;97825;-60
2023/11/17 00:20:27;;;;;;;57.70;21.40;;;;;;;0.65;72.39;101395.64;107603;1251;97724;-59
2023/11/17 00:22:56;;;;;;;39.10;21.00;;;;;;;0.65;72.51;101388.89;107645;1255;111837;-60
2023/11/17 00:25:24;;;;;;;45.80;21.60;;;;;;;0.63;72.46;101378.55;107644;1251;109287;-61
2023/11/17 00:27:53;;;;;;;44.10;20.20;;;;;;;0.59;72.59;101371.09;107587;1253;107829;-61
2023/11/17 00:30:21;;;;;;;37.20;19.60;;;;;;;0.53;72.34;101366.91;107564;1256;97835;-61
2023/11/17 00:32:49;;;;;;;39.30;19.10;;;;;;;0.49;72.22;101366.73;107620;1253;97906;-61
2023/11/17 00:35:18;;;;;;;33.40;20.10;;;;;;;0.46;72.19;101363.99;107657;1251;111446;-60
2023/11/17 00:37:46;;;;;;;37.50;19.20;;;;;;;0.44;72.43;101358.23;107562;1253;109646;-60
2023/11/17 00:40:15;;;;;;;36.90;18.50;;;;;;;0.47;72.61;101354.09;107432;1254;108585;-59
2023/11/17 00:42:44;;;;;;;34.60;17.70;;;;;;;0.50;72.77;101354.16;107602;1251;97917;-60
2023/11/17 00:45:12;;;;;;;40.40;20.00;;;;;;;0.52;72.83;101348.98;107556;1253;97867;-61
2023/11/17 00:47:41;;;;;;;52.50;20.30;;;;;;;0.54;72.90;101349.41;107587;1254;111612;-61
2023/11/17 00:50:11;;;;;;;45.60;22.00;;;;;;;0.55;72.69;101341.96;107565;1253;108736;-61
2023/11/17 00:52:41;;;;;;;31.10;18.10;;;;;;;0.56;72.70;101334.35;107531;1253;107573;-58
2023/11/17 00:55:13;;;;;;;37.30;18.40;;;;;;;0.55;72.67;101338.60;107629;1254;97903;-59
2023/11/17 00:57:44;;;;;;;33.80;18.70;;;;;;;0.54;72.48;101334.05;107628;1253;97884;-60
2023/11/17 01:00:13;;;;;;;31.80;17.50;;;;;;;0.55;72.62;101330.83;107651;1251;110990;-61
2023/11/17 01:02:41;;;;;;;26.00;16.80;;;;;;;0.57;72.74;101327.05;107624;1253;108504;-59
2023/11/17 01:05:10;;;;;;;31.60;16.40;;;;;;;0.60;72.73;101324.30;107578;1255;108214;-59
2023/11/17 01:07:39;;;;;;;26.50;16.20;;;;;;;0.62;72.59;101322.98;107586;1253;97828;-58
2023/11/17 01:10:08;;;;;;;34.70;16.30;;;;;;;0.65;72.80;101320.95;107540;1257;98398;-60
2023/11/17 01:12:37;;;;;;;31.90;16.90;;;;;;;0.67;72.80;101313.27;107568;1253;110745;-60
2023/11/17 01:15:07;;;;;;;30.50;16.90;;;;;;;0.70;72.94;101303.61;107578;1253;109693;-61
2023/11/17 01:17:36;;;;;;;31.60;18.80;;;;;;;0.71;72.71;101294.92;107491;1253;108271;-60
2023/11/17 01:20:07;;;;;;;30.60;17.00;;;;;;;0.72;72.65;101286.38;107460;1252;97979;-60
2023/11/17 01:22:35;;;;;;;31.10;18.20;;;;;;;0.72;72.59;101280.25;107596;1253;97827;-59
2023/11/17 01:25:05;;;;;;;35.30;18.00;;;;;;;0.70;72.43;101273.61;107568;1254;111229;-61
2023/11/17 01:27:34;;;;;;;31.00;18.10;;;;;;;0.69;72.47;101265.53;107557;1253;108464;-60
2023/11/17 01:30:04;;;;;;;32.50;16.50;;;;;;;0.68;72.46;101263.78;107580;1256;108259;-60
2023/11/17 01:32:32;;;;;;;27.30;15.70;;;;;;;0.70;72.54;101264.08;107576;1254;97652;-61
2023/11/17 01:35:01;;;;;;;29.40;16.60;;;;;;;0.72;72.63;101261.55;107640;1254;98466;-59
2023/11/17 01:37:29;;;;;;;26.00;16.20;;;;;;;0.72;72.75;101257.78;107572;1251;111387;-58
2023/11/17 01:39:58;;;;;;;27.30;14.70;;;;;;;0.72;72.79;101246.31;107543;1254;110444;-60
2023/11/17 01:42:32;;;;;;;26.30;15.30;;;;;;;0.73;72.63;101241.70;107568;1254;108579;-60
2023/11/17 01:45:01;;;;;;;21.20;14.50;;;;;;;0.70;72.87;101240.23;107618;1255;97725;-59
2023/11/17 01:47:30;;;;;;;29.20;13.60;;;;;;;0.66;73.32;101240.60;107624;1251;97831;-60
2023/11/17 01:49:59;;;;;;;23.70;14.30;;;;;;;0.63;73.08;101237.50;107579;1252;111916;-59
2023/11/17 01:52:28;;;;;;;21.80;14.30;;;;;;;0.65;73.57;101229.67;107590;1251;109811;-60
2023/11/17 01:54:57;;;;;;;21.40;13.60;;;;;;;0.68;74.24;101227.77;107572;1253;107820;-60
2023/11/17 01:57:28;;;;;;;25.10;12.20;;;;;;;0.70;74.32;101237.77;107535;1251;97935;-59
2023/11/17 01:59:57;;;;;;;22.70;12.70;;;;;;;0.72;75.08;101241.02;107686;1252;98471;-61
2023/11/17 02:02:27;;;;;;;23.30;12.80;;;;;;;0.75;74.83;101238.10;107618;1253;111497;-61
2023/11/17 02:04:56;;;;;;;20.70;13.10;;;;;;;0.79;74.67;101229.29;107669;1251;109314;-60
2023/11/17 02:07:47;;;;;;;20.40;13.00;;;;;;;0.82;74.69;101221.05;107634;1251;107885;-60
2023/11/17 02:10:23;;;;;;;19.00;12.60;;;;;;;0.84;74.57;101221.15;107632;1255;97834;-61
2023/11/17 02:13:11;;;;;;;23.00;12.30;;;;;;;0.86;74.68;101226.19;107613;1251;97730;-60
2023/11/17 02:15:41;;;;;;;27.00;12.20;;;;;;;0.90;74.70;101227.95;107728;1251;112218;-59
2023/11/17 02:18:13;;;;;;;20.50;12.90;;;;;;;0.97;75.10;101222.20;107701;1251;108416;-60
2023/11/17 02:20:44;;;;;;;21.80;12.00;;;;;;;1.04;75.02;101222.82;107709;1251;106797;-59
2023/11/17 02:23:16;;;;;;;24.30;12.90;;;;;;;1.07;74.73;101210.85;107639;1256;97834;-59
2023/11/17 02:26:22;;;;;;;17.70;11.30;;;;;;;1.08;74.51;101203.73;107590;1254;97847;-60
2023/11/17 02:29:06;;;;;;;22.00;11.60;;;;;;;1.08;74.42;101197.55;107445;1251;111235;-60
2023/11/17 02:31:36;;;;;;;20.30;11.90;;;;;;;1.10;74.64;101190.60;107588;1254;109461;-61
2023/11/17 02:34:09;;;;;;;19.10;10.30;;;;;;;1.15;74.88;101178.55;107657;1256;107333;-60
2023/11/17 02:36:39;;;;;;;19.80;12.20;;;;;;;1.21;74.60;101169.80;107666;1251;97829;-60
2023/11/17 02:39:14;;;;;;;13.50;9.70;;;;;;;1.25;74.52;101168.19;107539;1251;97710;-60
2023/11/17 02:41:57;;;;;;;20.00;11.00;;;;;;;1.28;74.34;101167.55;107607;1251;111950;-60
2023/11/17 02:44:33;;;;;;;17.60;10.50;;;;;;;1.34;74.39;101163.24;107629;1254;110171;-60
2023/11/17 02:47:04;;;;;;;17.20;10.80;;;;;;;1.38;74.31;101165.54;107590;1254;108586;-60
2023/11/17 02:49:41;;;;;;;15.50;9.90;;;;;;;1.42;74.21;101157.95;107629;1256;97785;-60
2023/11/17 02:52:31;;;;;;;21.70;13.20;;;;;;;1.46;74.32;101145.05;107420;1251;97746;-61
2023/11/17 02:55:02;;;;;;;16.80;9.80;;;;;;;1.46;74.20;101137.63;107609;1251;112168;-61
2023/11/17 02:57:35;;;;;;;17.20;11.50;;;;;;;1.43;74.16;101136.34;107496;1256;109708;-61
2023/11/17 03:00:08;;;;;;;16.60;10.00;;;;;;;1.40;74.12;101145.81;107573;1257;108040;-61
2023/11/17 03:02:39;;;;;;;16.50;10.60;;;;;;;1.43;74.60;101165.85;107621;1256;97722;-60
2023/11/17 03:05:13;;;;;;;17.50;10.90;;;;;;;1.48;74.73;101181.73;107615;1255;97727;-62
2023/11/17 03:07:44;;;;;;;15.20;10.00;;;;;;;1.50;74.70;101189.20;107646;1251;111349;-61
2023/11/17 03:10:13;;;;;;;13.70;9.60;;;;;;;1.53;74.48;101177.06;107548;1250;109367;-61
2023/11/17 03:12:41;;;;;;;16.70;10.70;;;;;;;1.54;74.09;101182.69;107579;1256;107896;-60
2023/11/17 03:15:10;;;;;;;18.10;10.40;;;;;;;1.55;74.39;101189.71;107559;1251;97854;-61
2023/11/17 03:17:41;;;;;;;17.20;11.70;;;;;;;1.55;74.34;101191.46;107612;1254;97708;-58
2023/11/17 03:20:16;;;;;;;18.60;12.00;;;;;;;1.58;74.36;101197.91;107628;1255;112741;-57
2023/11/17 03:22:45;;;;;;;20.30;10.70;;;;;;;1.56;74.33;101207.71;107610;1254;108713;-59
2023/11/17 03:25:15;;;;;;;19.90;10.40;;;;;;;1.55;74.42;101220.27;107610;1255;108259;-58
2023/11/17 03:27:50;;;;;;;16.80;11.20;;;;;;;1.50;74.22;101221.20;107551;1253;97833;-59
2023/11/17 03:30:19;;;;;;;16.40;9.90;;;;;;;1.50;74.24;101213.27;107597;1253;97715;-60
2023/11/17 03:32:52;;;;;;;20.90;10.80;;;;;;;1.51;74.27;101207.91;107562;1254;111490;-61
2023/11/17 03:35:21;;;;;;;;;;;;;;;1.51;74.35;101202.08;107573;1251;108805;-60
2023/11/17 03:37:50;;;;;;;20.10;11.50;;;;;;;1.50;74.32;101201.92;107537;1254;107712;-60
2023/11/17 03:40:19;;;;;;;19.50;10.90;;;;;;;1.50;74.31;101200.88;107560;1251;97816;-59
2023/11/17 03:42:47;;;;;;;17.00;9.90;;;;;;;1.50;74.39;101189.23;107543;1254;97737;-61
2023/11/17 03:45:16;;;;;;;21.90;11.30;;;;;;;1.47;74.12;101176.80;107457;1254;111282;-61
2023/11/17 03:47:45;;;;;;;24.20;12.70;;;;;;;1.43;74.09;101179.84;107575;1251;108747;-59
2023/11/17 03:50:14;;;;;;;23.70;12.00;;;;;;;1.42;74.17;101171.37;107560;1251;106645;-60
2023/11/17 03:52:42;;;;;;;19.50;11.70;;;;;;;1.40;74.13;101167.73;107587;1251;97694;-61
2023/11/17 03:55:11;;;;;;;21.50;12.20;;;;;;;1.39;74.11;101173.96;107644;1256;97810;-61
2023/11/17 03:57:40;;;;;;;19.20;11.60;;;;;;;1.38;74.07;101175.24;107593;1255;111097;-61
2023/11/17 04:00:09;;;;;;;24.00;13.20;;;;;;;1.33;73.79;101175.64;107612;1255;108669;-61
2023/11/17 04:02:41;;;;;;;23.20;12.70;;;;;;;1.32;74.01;101185.08;107562;1256;108698;-61
2023/11/17 04:05:13;;;;;;;20.60;13.40;;;;;;;1.33;74.08;101190.66;107638;1251;97870;-61
2023/11/17 04:07:48;;;;;;;20.90;11.60;;;;;;;1.34;73.83;101186.77;107599;1254;98395;-61
2023/11/17 04:10:19;;;;;;;28.80;13.10;;;;;;;1.33;74.08;101182.54;107645;1251;111854;-62
2023/11/17 04:12:47;;;;;;;23.40;12.30;;;;;;;1.32;74.09;101174.98;107634;1251;110218;-61
2023/11/17 04:15:15;;;;;;;19.20;12.20;;;;;;;1.34;74.11;101167.64;107587;1251;108144;-60
2023/11/17 04:17:44;;;;;;;24.80;12.90;;;;;;;1.37;74.14;101168.92;107611;1251;97834;-60
2023/11/17 04:20:18;;;;;;;20.60;11.80;;;;;;;1.39;74.10;101156.45;107572;1251;97816;-59
2023/11/17 04:22:47;;;;;;;27.20;12.20;;;;;;;1.43;74.12;101155.43;107564;1251;111768;-58
2023/11/17 04:25:15;;;;;;;24.20;13.60;;;;;;;1.44;73.83;101162.45;107597;1251;109781;-59
2023/11/17 04:27:43;;;;;;;24.00;13.20;;;;;;;1.45;73.86;101168.58;107626;1251;107615;-60
2023/11/17 04:30:12;;;;;;;22.60;13.10;;;;;;;1.45;73.76;101176.19;107601;1251;97704;-59
2023/11/17 04:32:40;;;;;;;19.20;12.10;;;;;;;1.47;73.79;101170.47;107601;1251;98396;-59
2023/11/17 04:35:11;;;;;;;18.60;11.10;;;;;;;1.46;73.89;101169.95;107635;1251;112112;-60
2023/11/17 04:37:39;;;;;;;19.10;12.00;;;;;;;1.46;73.86;101168.73;107575;1251;110054;-60
2023/11/17 04:40:12;;;;;;;23.80;12.00;;;;;;;1.50;73.97;101170.66;107506;1254;107667;-60
2023/11/17 04:42:40;;;;;;;23.40;12.50;;;;;;;1.53;73.96;101173.72;107620;1254;97942;-60
2023/11/17 04:45:10;;;;;;;22.40;12.30;;;;;;;1.56;74.02;101177.99;107619;1254;97714;-60
2023/11/17 04:47:38;;;;;;;22.60;12.20;;;;;;;1.59;73.72;101184.79;107624;1253;112164;-58
2023/11/17 04:50:09;;;;;;;19.80;11.90;;;;;;;1.60;73.55;101184.75;107678;1255;109641;-60
2023/11/17 04:52:39;;;;;;;20.60;12.80;;;;;;;1.59;73.79;101182.67;107566;1254;108701;-61
2023/11/17 04:55:12;;;;;;;27.00;12.20;;;;;;;1.59;73.67;101191.15;107573;1251;97816;-60
2023/11/17 04:57:41;;;;;;;26.90;14.10;;;;;;;1.59;73.67;101197.70;107628;1256;97704;-61
2023/11/17 05:00:13;;;;;;;31.40;13.00;;;;;;;1.61;73.65;101196.38;107558;1251;111615;-61
2023/11/17 05:02:42;;;;;;;26.10;12.50;;;;;;;1.62;73.62;101190.45;107601;1253;109949;-61
2023/11/17 05:05:11;;;;;;;28.10;13.60;;;;;;;1.62;73.74;101189.79;107574;1253;109462;-60
2023/11/17 05:07:46;;;;;;;22.50;12.70;;;;;;;1.64;73.81;101191.12;107497;1253;97816;-61
2023/11/17 05:10:19;;;;;;;28.30;12.70;;;;;;;1.67;74.04;101183.35;107649;1251;97831;-61
2023/11/17 05:12:48;;;;;;;20.40;12.20;;;;;;;1.65;73.82;101188.04;107650;1254;111229;-61
2023/11/17 05:15:20;;;;;;;31.00;13.00;;;;;;;1.67;73.99;101190.76;107578;1251;108763;-61
2023/11/17 05:17:48;;;;;;;32.60;12.70;;;;;;;1.70;73.96;101185.14;107550;1256;108321;-59
2023/11/17 05:20:19;;;;;;;22.10;12.50;;;;;;;1.74;73.98;101180.91;107581;1256;97819;-61
2023/11/17 05:22:48;;;;;;;33.60;11.90;;;;;;;1.79;73.94;101173.30;107654;1251;98389;-60
2023/11/17 05:25:16;;;;;;;22.30;11.20;;;;;;;1.83;73.78;101176.77;107589;1251;112777;-60
2023/11/17 05:27:48;;;;;;;29.90;13.30;;;;;;;1.84;73.71;101175.68;107551;1250;109892;-61
2023/11/17 05:30:18;;;;;;;30.10;12.90;;;;;;;1.86;73.85;101171.73;107611;1251;106920;-60
2023/11/17 05:32:47;;;;;;;24.20;12.20;;;;;;;1.86;73.75;101173.10;107644;1251;97861;-62
2023/11/17 05:35:16;;;;;;;28.80;13.00;;;;;;;1.91;73.77;101163.91;107582;1251;98007;-60
2023/11/17 05:37:44;;;;;;;30.70;13.30;;;;;;;1.95;73.84;101163.37;107630;1251;110672;-60
2023/11/17 05:40:14;;;;;;;19.80;10.80;;;;;;;1.94;73.65;101155.59;107649;1251;109834;-60
2023/11/17 05:42:42;;;;;;;24.60;11.80;;;;;;;1.94;73.68;101146.95;107612;1251;107623;-60
2023/11/17 05:45:12;;;;;;;17.90;11.60;;;;;;;1.98;73.77;101149.23;107618;1253;97837;-60
2023/11/17 05:47:41;;;;;;;17.40;10.20;;;;;;;2.06;74.13;101149.57;107583;1254;97704;-60
2023/11/17 05:50:11;;;;;;;22.10;11.00;;;;;;;2.14;74.12;101146.91;107621;1256;111305;-62
2023/11/17 05:52:43;;;;;;;16.20;10.20;;;;;;;2.20;73.92;101148.55;107584;1256;109664;-60
2023/11/17 05:55:16;;;;;;;22.20;11.80;;;;;;;2.26;73.90;101147.77;107476;1256;108573;-61
2023/11/17 05:57:46;;;;;;;19.70;10.00;;;;;;;2.31;73.72;101141.46;107579;1254;97845;-59
2023/11/17 06:00:18;;;;;;;34.50;10.00;;;;;;;2.38;73.77;101143.30;107603;1254;97740;-60
2023/11/17 06:02:46;;;;;;;15.30;9.10;;;;;;;2.43;73.59;101136.83;107580;1251;111595;-60
2023/11/17 06:05:16;;;;;;;26.00;11.70;;;;;;;2.44;73.03;101132.88;107531;1254;109857;-62
2023/11/17 06:07:44;;;;;;;26.50;11.50;;;;;;;2.43;72.93;101134.72;107623;1251;107286;-61
2023/11/17 06:10:13;;;;;;;24.40;11.10;;;;;;;2.45;73.07;101135.70;107477;1254;97912;-60
2023/11/17 06:12:41;;;;;;;24.90;12.40;;;;;;;2.47;72.94;101128.66;107655;1254;98398;-60
2023/11/17 06:15:14;;;;;;;24.80;10.30;;;;;;;2.46;72.85;101131.40;107625;1254;111227;-64
2023/11/17 06:17:43;;;;;;;32.40;11.70;;;;;;;2.45;72.68;101131.46;107635;1253;109044;-60
2023/11/17 06:20:13;;;;;;;19.60;10.30;;;;;;;2.47;72.78;101128.15;107648;1254;108637;-61
2023/11/17 06:22:42;;;;;;;24.50;11.30;;;;;;;2.54;73.10;101125.15;107591;1253;97896;-60
2023/11/17 06:25:11;;;;;;;19.30;11.60;;;;;;;2.63;73.18;101122.79;107701;1254;98350;-61
2023/11/17 06:27:40;;;;;;;22.00;12.20;;;;;;;2.71;73.09;101127.36;107467;1253;110733;-59
2023/11/17 06:30:10;;;;;;;22.50;10.20;;;;;;;2.78;72.90;101127.70;107660;1256;109950;-59
2023/11/17 06:32:38;;;;;;;21.10;10.10;;;;;;;2.85;72.79;101126.84;107606;1253;108321;-60
2023/11/17 06:35:07;;;;;;;34.40;16.10;;;;;;;2.88;72.41;101127.55;107628;1254;97906;-59
2023/11/17 06:37:37;;;;;;;19.20;11.80;;;;;;;2.90;72.54;101119.65;107618;1253;97730;-58
2023/11/17 06:40:09;;;;;;;22.00;10.40;;;;;;;2.94;72.45;101112.21;107694;1251;111229;-60
2023/11/17 06:42:40;;;;;;;20.00;11.70;;;;;;;2.93;72.07;101111.00;107588;1254;108871;-59
2023/11/17 06:45:12;;;;;;;21.40;11.40;;;;;;;2.88;71.73;101105.96;107604;1254;108157;-60
2023/11/17 06:47:43;;;;;;;20.40;9.90;;;;;;;2.81;71.68;101107.86;107580;1253;98013;-60
2023/11/17 06:50:12;;;;;;;25.80;10.40;;;;;;;2.76;71.77;101102.80;107691;1251;97714;-60
2023/11/17 06:52:41;;;;;;;20.80;10.20;;;;;;;2.74;71.56;101100.64;107619;1251;111372;-61
2023/11/17 06:55:10;;;;;;;17.10;10.30;;;;;;;2.72;71.53;101095.06;107579;1251;109890;-61
2023/11/17 06:57:43;;;;;;;21.80;10.30;;;;;;;2.71;71.59;101090.35;107638;1251;108278;-63
2023/11/17 07:00:12;;;;;;;21.60;10.60;;;;;;;2.71;71.75;101089.46;107603;1251;97813;-60
2023/11/17 07:02:41;;;;;;;17.10;11.10;;;;;;;2.74;71.88;101087.51;107504;1253;98409;-61
2023/11/17 07:05:10;;;;;;;21.40;10.90;;;;;;;2.80;71.95;101084.91;107647;1251;110987;-61
2023/11/17 07:07:39;;;;;;;18.30;10.40;;;;;;;2.86;72.07;101079.64;107606;1254;109736;-60
2023/11/17 07:10:14;;;;;;;20.90;10.50;;;;;;;2.91;72.07;101073.89;107584;1254;107757;-60
2023/11/17 07:12:44;;;;;;;23.00;11.40;;;;;;;2.94;71.97;101074.08;107633;1251;97828;-59
2023/11/17 07:15:13;;;;;;;20.00;10.30;;;;;;;2.96;71.79;101074.71;107624;1253;97828;-60
2023/11/17 07:17:42;;;;;;;23.40;10.30;;;;;;;3.01;71.95;101081.00;107543;1251;111511;-61
2023/11/17 07:20:11;;;;;;;15.40;9.00;;;;;;;3.07;71.80;101071.29;107589;1253;108712;-60
2023/11/17 07:22:41;;;;;;;15.00;9.10;;;;;;;3.13;71.77;101065.48;107621;1253;107371;-59
2023/11/17 07:25:10;;;;;;;17.60;10.30;;;;;;;3.24;71.86;101064.73;107624;1251;97841;-61
2023/11/17 07:27:40;;;;;;;20.40;10.30;;;;;;;3.43;72.20;101063.03;107527;1253;98378;-61
2023/11/17 07:30:12;;;;;;;13.90;9.20;;;;;;;3.64;71.98;101073.42;107556;1253;110875;-60
2023/11/17 07:32:43;;;;;;;18.20;9.20;;;;;;;3.90;71.70;101074.11;107677;1251;109148;-59
2023/11/17 07:35:12;;;;;;;16.70;10.40;;;;;;;4.22;71.38;101079.26;107646;1251;106934;-60
2023/11/17 07:37:40;;;;;;;22.40;10.00;;;;;;;4.50;70.30;101078.23;107571;1252;97603;-60
2023/11/17 07:40:09;;;;;;;21.00;10.30;;;;;;;4.65;69.42;101074.30;107607;1253;98367;-59
2023/11/17 07:42:39;;;;;;;13.50;9.20;;;;;;;4.75;69.15;101068.56;107642;1253;112261;-61
2023/11/17 07:45:10;;;;;;;15.00;8.60;;;;;;;4.82;69.09;101065.28;107663;1252;108987;-61
2023/11/17 07:47:41;;;;;;;21.00;9.20;;;;;;;4.91;68.46;101068.52;107625;1255;108262;-61
2023/11/17 07:50:14;;;;;;;15.40;9.50;;;;;;;4.99;68.81;101064.13;107585;1252;99443;-60
2023/11/17 07:52:46;;;;;;;41.20;10.60;;;;;;;5.08;68.66;101057.52;107608;1253;97703;-60
2023/11/17 07:55:14;;;;;;;16.50;8.70;;;;;;;5.16;68.50;101057.23;107669;1254;111020;-59
2023/11/17 07:57:43;;;;;;;27.80;10.80;;;;;;;5.26;68.35;101053.09;107680;1253;110133;-61
2023/11/17 08:00:18;;;;;;;27.30;11.70;;;;;;;5.37;67.97;101050.23;107650;1255;108527;-61
2023/11/17 08:02:47;;;;;;;20.60;10.30;;;;;;;5.50;67.94;101051.05;107686;1252;97906;-60
2023/11/17 08:05:15;;;;;;;18.30;10.10;;;;;;;5.58;67.22;101055.17;107629;1251;97912;-60
2023/11/17 08:07:44;;;;;;;29.20;11.70;;;;;;;5.65;66.39;101058.30;107503;1252;114200;-60
2023/11/17 08:10:13;;;;;;;20.20;10.20;;;;;;;5.71;65.77;101050.64;107707;1252;109279;-59
2023/11/17 08:12:42;;;;;;;20.20;11.10;;;;;;;5.73;66.02;101040.01;107664;1253;107787;-60
2023/11/17 08:15:11;;;;;;;26.20;10.00;;;;;;;5.84;66.36;101039.68;107661;1253;97798;-61
2023/11/17 08:17:39;;;;;;;30.50;10.40;;;;;;;5.94;65.83;101033.86;107638;1253;97804;-61
2023/11/17 08:20:10;;;;;;;19.80;11.40;;;;;;;6.06;65.84;101033.98;107662;1251;112353;-61
2023/11/17 08:22:38;;;;;;;18.00;11.40;;;;;;;6.26;66.08;101042.32;107654;1251;110170;-59
2023/11/17 08:25:08;;;;;;;20.00;10.10;;;;;;;6.45;65.60;101034.98;107605;1251;107885;-60
2023/11/17 08:27:36;;;;;;;20.50;9.90;;;;;;;6.64;65.22;101029.47;107691;1256;97924;-60
2023/11/17 08:30:07;;;;;;;16.60;9.50;;;;;;;6.92;63.73;101022.91;107637;1253;97935;-62
2023/11/17 08:32:39;;;;;;;18.10;9.30;;;;;;;7.34;62.64;101017.85;107670;1251;112258;-59
2023/11/17 08:35:09;;;;;;;16.60;9.70;;;;;;;7.94;60.94;101017.27;107653;1251;109738;-60
2023/11/17 08:37:41;;;;;;;18.10;9.80;;;;;;;8.68;59.64;101008.37;107621;1253;108536;-59
2023/11/17 08:40:10;;;;;;;18.90;9.30;;;;;;;9.38;59.04;101005.11;107624;1255;97939;-60
2023/11/17 08:42:39;;;;;;;16.00;8.70;;;;;;;10.01;58.47;101000.21;107626;1251;97814;-59
2023/11/17 08:45:09;;;;;;;14.20;8.00;;;;;;;10.62;56.90;100997.85;107578;1251;112006;-60
2023/11/17 08:47:39;;;;;;;16.30;8.50;;;;;;;11.05;54.00;100993.70;107696;1251;109059;-60
2023/11/17 08:50:09;;;;;;;12.90;8.50;;;;;;;11.41;53.29;100995.36;107655;1255;107704;-61
2023/11/17 08:52:40;;;;;;;14.20;8.40;;;;;;;11.91;54.06;100987.77;107666;1253;97851;-61
2023/11/17 08:55:13;;;;;;;17.60;7.80;;;;;;;12.35;52.41;100975.64;107637;1253;97900;-62
2023/11/17 08:57:44;;;;;;;18.20;8.10;;;;;;;12.76;52.41;100968.94;107637;1253;112078;-61
2023/11/17 09:00:35;;;;;;;12.80;8.10;;;;;;;13.02;50.70;100963.94;107641;1253;110053;-61
2023/11/17 09:03:02;;;;;;;13.80;7.60;;;;;;;13.18;49.03;100964.52;107591;1253;107725;-62
2023/11/17 09:05:30;;;;;;;14.30;6.50;;;;;;;13.54;48.59;100952.10;107535;1253;97813;-62
2023/11/17 09:07:59;;;;;;;14.50;7.50;;;;;;;13.93;48.26;100949.67;107552;1251;97709;-61
2023/11/17 09:10:27;;;;;;;11.80;6.20;;;;;;;14.09;47.10;100941.85;107603;1253;111955;-61
2023/11/17 09:12:56;;;;;;;14.10;7.80;;;;;;;14.41;47.70;100932.13;107668;1253;109436;-60
2023/11/17 09:15:27;;;;;;;12.80;7.60;;;;;;;14.82;46.29;100923.43;107607;1255;108106;-61
2023/11/17 09:17:56;;;;;;;11.60;7.60;;;;;;;14.97;45.76;100918.17;107652;1253;97925;-61
2023/11/17 09:20:26;;;;;;;11.50;6.90;;;;;;;14.95;44.10;100915.71;107680;1253;98347;-61
2023/11/17 09:22:55;;;;;;;10.40;6.70;;;;;;;14.61;43.70;100911.06;107629;1253;112501;-62
2023/11/17 09:25:24;;;;;;;9.90;6.60;;;;;;;14.36;44.27;100914.00;107654;1255;110106;-62
2023/11/17 09:27:56;;;;;;;11.20;6.60;;;;;;;14.43;44.73;100916.07;107555;1252;107363;-62
2023/11/17 09:30:30;;;;;;;12.10;6.20;;;;;;;14.41;44.56;100911.49;107603;1251;97860;-62
2023/11/17 09:33:02;;;;;;;14.50;7.00;;;;;;;14.13;44.82;100904.64;107634;1253;98438;-61
2023/11/17 09:35:32;;;;;;;11.00;6.90;;;;;;;13.93;45.10;100905.17;107616;1251;109837;-61
2023/11/17 09:38:04;;;;;;;11.80;7.00;;;;;;;13.71;44.50;100905.19;107672;1253;108696;-61
2023/11/17 09:40:33;;;;;;;13.90;7.60;;;;;;;13.28;44.61;100900.59;107601;1251;108683;-59
2023/11/17 09:43:18;;;;;;;21.50;11.50;;;;;;;12.85;45.21;100908.30;107654;1251;97959;-62
2023/11/17 09:45:47;;;;;;;11.50;7.40;;;;;;;12.67;45.91;100897.96;107638;1253;98030;-60
2023/11/17 09:48:17;;;;;;;9.50;6.20;;;;;;;12.77;45.68;100890.40;107611;1253;111349;-61
2023/11/17 09:50:49;;;;;;;14.70;7.70;;;;;;;12.94;45.41;100889.67;107576;1253;109955;-59
2023/11/17 09:53:19;;;;;;;13.90;7.10;;;;;;;13.18;45.47;100884.75;107609;1251;110467;-60
2023/11/17 09:55:49;;;;;;;13.70;7.50;;;;;;;13.42;45.31;100878.20;107618;1252;97720;-61
2023/11/17 09:58:17;;;;;;;10.60;7.10;;;;;;;13.60;45.14;100875.50;107612;1253;98369;-59
2023/11/17 10:00:47;;;;;;;15.00;6.50;;;;;;;13.64;44.64;100866.27;107625;1253;111420;-60
2023/11/17 10:03:19;;;;;;;14.60;7.30;;;;;;;13.54;44.37;100865.80;107472;1253;110374;-61
2023/11/17 10:05:50;;;;;;;18.50;8.80;;;;;;;13.42;44.45;100860.12;107637;1252;107064;-61
2023/11/17 10:08:23;;;;;;;15.50;8.30;;;;;;;13.52;44.48;100848.23;107609;1253;97984;-61
2023/11/17 10:10:55;;;;;;;19.10;9.50;;;;;;;13.47;45.04;100838.59;107660;1255;97721;-61
2023/11/17 10:13:25;;;;;;;16.50;7.20;;;;;;;13.24;44.13;100836.52;107378;1256;353340;-61
2023/11/17 10:15:58;;;;;;;10.00;6.50;;;;;;;12.80;44.71;100830.19;107571;1253;107303;-63
2023/11/17 10:18:31;;;;;;;13.00;6.10;;;;;;;12.57;45.17;100837.53;107624;1253;105686;-61
2023/11/17 10:20:59;;;;;;;12.30;6.00;;;;;;;12.51;45.60;100829.02;107629;1253;97936;-60
2023/11/17 10:23:30;;;;;;;10.70;6.10;;;;;;;12.59;45.39;100817.21;107582;1253;98364;-60
2023/11/17 10:26:00;;;;;;;10.60;6.20;;;;;;;12.60;45.56;100814.80;107627;1252;110918;-61
2023/11/17 10:28:29;;;;;;;13.90;6.20;;;;;;;12.72;45.62;100816.23;107684;1251;110099;-61
2023/11/17 10:31:01;;;;;;;11.20;6.10;;;;;;;12.83;45.11;100816.34;107605;1254;107955;-61
2023/11/17 10:33:40;;;;;;;10.80;5.90;;;;;;;12.95;45.29;100815.56;107595;1253;97845;-61
2023/11/17 10:36:11;;;;;;;14.20;7.20;;;;;;;13.05;45.23;100812.81;107652;1253;98490;-61
2023/11/17 10:38:46;;;;;;;15.80;6.00;;;;;;;13.15;44.78;100808.42;107719;1250;110763;-60
2023/11/17 10:41:30;;;;;;;12.40;7.30;;;;;;;13.09;44.07;100805.02;107624;1251;108871;-61
2023/11/17 10:44:03;;;;;;;13.80;6.90;;;;;;;12.79;44.38;100806.16;107546;1253;108177;-60
2023/11/17 10:46:35;;;;;;;12.80;6.80;;;;;;;12.54;44.93;100810.37;107553;1255;97922;-61
2023/11/17 10:49:04;;;;;;;14.50;6.40;;;;;;;12.47;45.01;100807.54;107589;1253;98492;-62
2023/11/17 10:51:51;;;;;;;14.90;6.40;;;;;;;12.68;44.88;100800.88;107650;1256;112377;-60
2023/11/17 10:54:20;;;;;;;11.60;6.50;;;;;;;13.13;44.73;100792.71;107650;1253;109719;-60
2023/11/17 10:56:50;;;;;;;9.90;5.70;;;;;;;13.71;44.09;100782.84;107581;1253;107736;-61
2023/11/17 10:59:21;;;;;;;10.90;6.10;;;;;;;14.20;43.42;100779.77;107601;1252;97871;-60
2023/11/17 11:01:51;;;;;;;8.90;5.10;;;;;;;14.66;42.22;100775.23;107679;1252;98376;-61
2023/11/17 11:04:26;;;;;;;9.80;5.20;;;;;;;14.56;41.53;100773.02;107668;1252;110389;-61
2023/11/17 11:06:56;;;;;;;7.00;4.80;;;;;;;14.29;41.55;100768.08;107628;1253;109979;-61
2023/11/17 11:09:32;;;;;;;8.20;5.20;;;;;;;13.89;41.45;100763.37;107615;1251;107017;-61
2023/11/17 11:12:06;;;;;;;8.90;5.40;;;;;;;13.29;42.51;100759.82;107637;1255;97973;-61
2023/11/17 11:14:40;;;;;;;9.20;5.70;;;;;;;12.96;42.90;100766.11;107583;1253;97734;-61
2023/11/17 11:17:11;;;;;;;;;;;;;;;12.79;43.28;100768.11;107594;1251;111263;-61
2023/11/17 11:19:44;;;;;;;15.40;6.60;;;;;;;12.52;43.35;100770.25;107661;1252;109229;-61
2023/11/17 11:22:31;;;;;;;10.30;6.80;;;;;;;12.24;43.37;100772.17;107647;1251;108420;-60